createdAt,value
2022-11-12T00:02:29.141Z,9.70
2022-11-12T00:05:14.481Z,9.20
2022-11-12T00:08:00.824Z,10.80
2022-11-12T00:10:46.284Z,13.30
2022-11-12T00:13:32.216Z,14.40
2022-11-12T00:16:17.394Z,15.30
2022-11-12T00:19:02.974Z,14.40
2022-11-12T00:21:48.375Z,13.80
2022-11-12T00:24:33.800Z,15.40
2022-11-12T00:27:19.689Z,14.70
2022-11-12T00:30:06.007Z,11.50
2022-11-12T00:32:51.428Z,14.10
2022-11-12T00:35:36.947Z,12.70
2022-11-12T00:38:22.490Z,12.60
2022-11-12T00:41:07.984Z,13.10
2022-11-12T00:43:53.347Z,11.60
2022-11-12T00:46:38.652Z,10.40
2022-11-12T00:49:24.215Z,10.70
2022-11-12T00:52:09.743Z,12.70
2022-11-12T00:54:54.920Z,10.90
2022-11-12T00:57:40.367Z,10.50
2022-11-12T01:00:27.055Z,12.20
2022-11-12T01:03:12.209Z,12.40
2022-11-12T01:06:23.493Z,13.10
2022-11-12T01:09:09.510Z,13.30
2022-11-12T01:11:55.217Z,13.30
2022-11-12T01:14:40.731Z,12.20
2022-11-12T01:17:26.044Z,11.70
2022-11-12T01:20:11.512Z,11.60
2022-11-12T01:22:56.495Z,11.40
2022-11-12T01:25:41.803Z,12.00
2022-11-12T01:28:27.270Z,10.00
2022-11-12T01:31:40.994Z,10.10
2022-11-12T01:34:27.126Z,12.50
2022-11-12T01:37:12.473Z,12.40
2022-11-12T01:39:57.860Z,12.60
2022-11-12T01:42:43.296Z,10.20
2022-11-12T01:45:29.224Z,11.30
2022-11-12T01:48:41.792Z,11.50
2022-11-12T01:51:34.733Z,9.60
2022-11-12T01:54:22.299Z,11.10
2022-11-12T01:57:10.297Z,9.00
2022-11-12T02:00:02.089Z,12.30
2022-11-12T02:02:55.870Z,11.40
2022-11-12T02:05:42.336Z,10.90
2022-11-12T02:08:29.980Z,12.50
2022-11-12T02:11:21.789Z,11.90
2022-11-12T02:14:07.817Z,9.90
2022-11-12T02:16:54.381Z,12.10
2022-11-12T02:19:39.795Z,8.90
2022-11-12T02:22:25.161Z,12.10
2022-11-12T02:25:23.291Z,11.60
2022-11-12T02:28:09.024Z,10.70
2022-11-12T02:30:54.226Z,9.20
2022-11-12T02:33:39.540Z,9.40
2022-11-12T02:36:25.470Z,9.80
2022-11-12T02:39:11.046Z,10.70
2022-11-12T02:41:56.408Z,11.20
2022-11-12T02:44:41.910Z,10.60
2022-11-12T02:47:27.214Z,11.40
2022-11-12T02:50:13.099Z,9.80
2022-11-12T02:52:58.570Z,11.90
2022-11-12T02:55:44.204Z,9.40
2022-11-12T02:58:30.487Z,10.50
2022-11-12T03:01:15.648Z,8.40
2022-11-12T03:04:01.008Z,8.80
2022-11-12T03:06:46.753Z,7.50
2022-11-12T03:09:32.095Z,7.50
2022-11-12T03:12:18.081Z,10.50
2022-11-12T03:15:03.869Z,9.20
2022-11-12T03:17:49.198Z,10.70
2022-11-12T03:20:34.839Z,9.80
2022-11-12T03:23:20.299Z,10.20
2022-11-12T03:26:05.904Z,9.60
2022-11-12T03:28:51.744Z,8.70
2022-11-12T03:31:37.492Z,8.60
2022-11-12T03:34:22.879Z,6.30
2022-11-12T03:37:09.715Z,8.00
2022-11-12T03:39:54.803Z,8.70
2022-11-12T03:42:48.967Z,6.20
2022-11-12T03:45:34.159Z,4.40
2022-11-12T03:48:19.612Z,9.30
2022-11-12T03:51:05.303Z,5.40
2022-11-12T03:53:50.529Z,8.70
2022-11-12T03:56:35.941Z,6.90
2022-11-12T03:59:21.407Z,7.30
2022-11-12T04:02:06.755Z,7.40
2022-11-12T04:05:12.541Z,7.20
2022-11-12T04:08:33.570Z,6.80
2022-11-12T04:11:20.294Z,8.70
2022-11-12T04:14:05.902Z,6.00
2022-11-12T04:17:09.903Z,6.80
2022-11-12T04:20:14.115Z,7.60
2022-11-12T04:22:59.455Z,8.10
2022-11-12T04:26:03.443Z,6.50
2022-11-12T04:29:07.900Z,6.10
2022-11-12T04:31:53.257Z,6.10
2022-11-12T04:34:38.951Z,4.50
2022-11-12T04:37:27.639Z,7.70
2022-11-12T04:40:37.890Z,6.50
2022-11-12T04:43:42.279Z,8.20
2022-11-12T04:46:27.770Z,8.00
2022-11-12T04:49:13.278Z,7.80
2022-11-12T04:52:07.818Z,9.90
2022-11-12T04:54:53.497Z,8.80
2022-11-12T04:57:39.188Z,8.90
2022-11-12T05:00:24.518Z,6.30
2022-11-12T05:03:09.942Z,7.70
2022-11-12T05:06:02.878Z,7.40
2022-11-12T05:08:48.022Z,7.50
2022-11-12T05:11:33.776Z,8.70
2022-11-12T05:14:19.067Z,7.60
2022-11-12T05:17:04.955Z,5.70
2022-11-12T05:19:50.774Z,7.60
2022-11-12T05:22:45.547Z,8.00
2022-11-12T05:25:35.647Z,5.70
2022-11-12T05:28:21.025Z,4.90
2022-11-12T05:31:06.535Z,7.60
2022-11-12T05:33:52.215Z,4.40
2022-11-12T05:36:37.907Z,6.70
2022-11-12T05:39:23.476Z,7.10
2022-11-12T05:42:13.754Z,5.40
2022-11-12T05:44:59.582Z,5.50
2022-11-12T05:47:45.105Z,4.30
2022-11-12T05:50:39.826Z,7.20
2022-11-12T05:53:31.058Z,6.80
2022-11-12T05:56:16.553Z,4.30
2022-11-12T05:59:05.170Z,7.60
2022-11-12T06:01:50.723Z,6.80
2022-11-12T06:04:36.090Z,7.10
2022-11-12T06:07:21.592Z,3.70
2022-11-12T06:10:07.967Z,7.50
2022-11-12T06:12:53.822Z,7.20
2022-11-12T06:15:39.537Z,7.50
2022-11-12T06:18:25.802Z,8.10
2022-11-12T06:21:24.594Z,7.60
2022-11-12T06:24:10.370Z,8.10
2022-11-12T06:26:55.666Z,7.70
2022-11-12T06:29:41.076Z,7.90
2022-11-12T06:32:27.154Z,7.80
2022-11-12T06:35:13.064Z,6.10
2022-11-12T06:37:58.485Z,7.00
2022-11-12T06:40:43.612Z,6.50
2022-11-12T06:43:32.174Z,5.60
2022-11-12T06:46:18.186Z,6.80
2022-11-12T06:49:03.924Z,7.10
2022-11-12T06:51:52.602Z,6.80
2022-11-12T06:54:38.227Z,6.60
2022-11-12T06:57:23.619Z,6.90
2022-11-12T07:00:11.867Z,6.70
2022-11-12T07:02:57.201Z,3.50
2022-11-12T07:05:43.251Z,5.10
2022-11-12T07:08:29.035Z,5.40
2022-11-12T07:11:14.709Z,4.80
2022-11-12T07:14:00.336Z,3.10
2022-11-12T07:16:45.697Z,4.30
2022-11-12T07:19:30.998Z,3.00
2022-11-12T07:22:16.452Z,3.50
2022-11-12T07:25:01.862Z,4.50
2022-11-12T07:27:47.403Z,4.20
2022-11-12T07:30:32.691Z,3.50
2022-11-12T07:33:18.139Z,3.40
2022-11-12T07:36:09.559Z,4.30
2022-11-12T07:38:55.092Z,3.70
2022-11-12T07:41:40.482Z,3.80
2022-11-12T07:44:26.134Z,3.50
2022-11-12T07:47:12.012Z,3.60
2022-11-12T07:49:57.411Z,3.70
2022-11-12T07:52:42.973Z,3.70
2022-11-12T07:55:28.383Z,3.60
2022-11-12T07:58:13.961Z,2.30
2022-11-12T08:01:29.226Z,3.60
2022-11-12T08:04:14.493Z,3.50
2022-11-12T08:06:59.896Z,2.20
2022-11-12T08:09:45.165Z,3.60
2022-11-12T08:12:30.676Z,2.70
2022-11-12T08:15:16.694Z,3.60
2022-11-12T08:18:02.161Z,3.10
2022-11-12T08:20:47.656Z,3.10
2022-11-12T08:23:33.902Z,2.80
2022-11-12T08:26:20.769Z,3.70
2022-11-12T08:29:08.517Z,4.30
2022-11-12T08:31:54.331Z,4.60
2022-11-12T08:34:41.480Z,3.40
2022-11-12T08:37:26.553Z,7.60
2022-11-12T08:40:12.760Z,4.60
2022-11-12T08:43:07.798Z,3.80
2022-11-12T08:45:53.003Z,5.10
2022-11-12T08:48:40.084Z,4.30
2022-11-12T08:51:25.289Z,6.10
2022-11-12T08:54:10.709Z,3.90
2022-11-12T08:56:56.259Z,4.10
2022-11-12T08:59:41.842Z,4.00
2022-11-12T09:02:27.351Z,3.70
2022-11-12T09:05:12.755Z,2.40
2022-11-12T09:08:05.629Z,3.70
2022-11-12T09:10:51.917Z,4.20
2022-11-12T09:13:37.030Z,4.30
2022-11-12T09:16:24.248Z,4.60
2022-11-12T09:19:09.612Z,4.60
2022-11-12T09:21:54.734Z,4.70
2022-11-12T09:24:40.684Z,4.40
2022-11-12T09:27:29.057Z,4.40
2022-11-12T09:30:14.977Z,3.70
2022-11-12T09:33:00.477Z,3.10
2022-11-12T09:35:46.909Z,3.10
2022-11-12T09:38:32.945Z,3.50
2022-11-12T09:41:44.985Z,4.40
2022-11-12T09:44:36.528Z,3.90
2022-11-12T09:47:34.264Z,4.40
2022-11-12T09:50:31.987Z,3.40
2022-11-12T09:53:44.548Z,2.30
2022-11-12T09:56:30.170Z,3.80
2022-11-12T09:59:16.722Z,5.40
2022-11-12T10:02:28.255Z,4.70
2022-11-12T10:05:37.344Z,4.80
2022-11-12T10:08:47.510Z,4.70
2022-11-12T10:12:31.709Z,5.10
2022-11-12T10:16:06.339Z,5.10
2022-11-12T10:19:08.929Z,4.20
2022-11-12T10:22:18.463Z,5.10
2022-11-12T10:25:32.292Z,5.00
2022-11-12T10:28:48.155Z,5.30
2022-11-12T10:31:33.601Z,5.50
2022-11-12T10:34:25.444Z,5.40
2022-11-12T10:37:22.433Z,5.20
2022-11-12T10:40:33.235Z,3.90
2022-11-12T10:43:18.410Z,5.40
2022-11-12T10:46:39.703Z,5.60
2022-11-12T10:49:25.533Z,5.50
2022-11-12T10:52:23.704Z,4.70
2022-11-12T10:55:24.353Z,4.30
2022-11-12T10:58:09.739Z,4.80
2022-11-12T11:01:05.158Z,5.60
2022-11-12T11:04:00.994Z,4.70
2022-11-12T11:06:46.647Z,5.30
2022-11-12T11:09:33.827Z,4.90
2022-11-12T11:12:29.240Z,5.40
2022-11-12T11:15:23.866Z,6.70
2022-11-12T11:18:12.596Z,4.70
2022-11-12T11:21:13.320Z,4.70
2022-11-12T11:24:46.929Z,6.00
2022-11-12T11:27:41.830Z,7.20
2022-11-12T11:30:27.369Z,6.80
2022-11-12T11:33:46.104Z,6.30
2022-11-12T11:36:54.431Z,5.80
2022-11-12T11:40:06.818Z,6.50
2022-11-12T11:43:20.420Z,5.10
2022-11-12T11:46:48.271Z,7.10
2022-11-12T11:49:39.702Z,6.20
2022-11-12T11:52:46.959Z,7.70
2022-11-12T11:55:57.399Z,7.10
2022-11-12T11:59:18.773Z,6.70
2022-11-12T12:02:44.769Z,6.40
2022-11-12T12:06:03.147Z,7.40
2022-11-12T12:09:33.595Z,7.10
2022-11-12T12:12:28.420Z,7.10
2022-11-12T12:15:49.207Z,8.20
2022-11-12T12:18:54.722Z,7.10
2022-11-12T12:21:46.195Z,7.00
2022-11-12T12:24:46.361Z,6.50
2022-11-12T12:27:38.810Z,7.00
2022-11-12T12:30:25.319Z,8.30
2022-11-12T12:33:42.815Z,6.50
2022-11-12T12:36:40.635Z,6.60
2022-11-12T12:39:37.479Z,6.60
2022-11-12T12:42:32.067Z,6.20
2022-11-12T12:45:46.414Z,7.20
2022-11-12T12:48:36.910Z,6.50
2022-11-12T12:51:23.344Z,5.40
2022-11-12T12:54:37.158Z,5.90
2022-11-12T12:57:40.186Z,5.80
2022-11-12T13:00:41.223Z,6.20
2022-11-12T13:04:05.138Z,6.20
2022-11-12T13:06:54.637Z,5.90
2022-11-12T13:09:40.324Z,6.30
2022-11-12T13:13:02.751Z,6.10
2022-11-12T13:15:54.453Z,6.70
2022-11-12T13:18:42.217Z,7.40
2022-11-12T13:21:28.393Z,5.90
2022-11-12T13:24:14.163Z,4.90
2022-11-12T13:27:00.493Z,5.90
2022-11-12T13:29:47.489Z,5.90
2022-11-12T13:32:36.914Z,6.60
2022-11-12T13:35:32.391Z,6.90
2022-11-12T13:38:20.112Z,6.90
2022-11-12T13:41:17.729Z,5.80
2022-11-12T13:44:08.842Z,5.60
2022-11-12T13:46:56.163Z,7.10
2022-11-12T13:49:44.220Z,6.00
2022-11-12T13:52:30.053Z,6.60
2022-11-12T13:55:22.302Z,5.80
2022-11-12T13:58:20.785Z,6.40
2022-11-12T14:01:07.700Z,5.30
2022-11-12T14:03:53.549Z,5.60
2022-11-12T14:06:44.668Z,5.20
2022-11-12T14:10:20.846Z,5.80
2022-11-12T14:13:59.730Z,6.30
2022-11-12T14:16:47.671Z,5.50
2022-11-12T14:19:57.960Z,6.60
2022-11-12T14:22:45.506Z,5.70
2022-11-12T14:25:31.379Z,6.70
2022-11-12T14:28:35.649Z,5.50
2022-11-12T14:31:25.529Z,6.30
2022-11-12T14:34:33.190Z,6.40
2022-11-12T14:37:43.392Z,6.80
2022-11-12T14:40:33.626Z,6.20
2022-11-12T14:43:32.834Z,5.30
2022-11-12T14:46:38.234Z,5.00
2022-11-12T14:49:43.918Z,5.00
2022-11-12T14:52:36.682Z,5.00
2022-11-12T14:55:33.609Z,5.90
2022-11-12T14:58:21.828Z,4.70
2022-11-12T15:02:14.519Z,6.00
2022-11-12T15:04:42.992Z,6.80
2022-11-12T15:07:37.913Z,5.80
2022-11-12T15:10:33.764Z,6.10
2022-11-12T15:13:23.858Z,7.40
2022-11-12T15:16:16.167Z,6.30
2022-11-12T15:19:23.377Z,7.90
2022-11-12T15:22:21.455Z,6.90
2022-11-12T15:25:32.049Z,7.00
2022-11-12T15:28:24.228Z,7.50
2022-11-12T15:31:21.091Z,8.50
2022-11-12T15:34:41.025Z,9.40
2022-11-12T15:37:29.333Z,10.20
2022-11-12T15:40:21.437Z,9.40
2022-11-12T15:43:18.725Z,9.20
2022-11-12T15:46:03.824Z,5.60
2022-11-12T15:48:54.475Z,7.00
2022-11-12T15:51:41.094Z,7.70
2022-11-12T15:54:26.693Z,7.60
2022-11-12T15:57:20.629Z,7.30
2022-11-12T16:00:15.352Z,7.10
2022-11-12T16:03:30.420Z,5.90
2022-11-12T16:06:15.850Z,5.20
2022-11-12T16:09:01.557Z,4.70
2022-11-12T16:11:49.856Z,7.10
2022-11-12T16:14:35.633Z,6.00
2022-11-12T16:17:25.636Z,6.80
2022-11-12T16:20:24.674Z,6.20
2022-11-12T16:23:10.245Z,8.40
2022-11-12T16:25:55.613Z,8.80
2022-11-12T16:28:41.265Z,6.10
2022-11-12T16:31:26.718Z,5.50
2022-11-12T16:34:12.100Z,5.40
2022-11-12T16:36:58.591Z,5.80
2022-11-12T16:39:43.977Z,6.50
2022-11-12T16:42:29.457Z,7.20
2022-11-12T16:45:17.705Z,5.20
2022-11-12T16:48:11.923Z,5.20
2022-11-12T16:50:59.031Z,7.30
2022-11-12T16:53:45.350Z,7.20
2022-11-12T16:56:30.888Z,4.10
2022-11-12T16:59:16.164Z,7.00
2022-11-12T17:02:01.468Z,8.40
2022-11-12T17:04:47.120Z,5.50
2022-11-12T17:07:32.603Z,6.00
2022-11-12T17:10:23.028Z,7.40
2022-11-12T17:13:13.028Z,4.70
2022-11-12T17:15:58.713Z,4.90
2022-11-12T17:18:44.171Z,6.10
2022-11-12T17:21:29.970Z,5.70
2022-11-12T17:24:15.313Z,6.80
2022-11-12T17:27:01.196Z,7.90
2022-11-12T17:29:46.411Z,4.60
2022-11-12T17:32:32.414Z,7.80
2022-11-12T17:35:17.542Z,6.90
2022-11-12T17:38:03.035Z,8.20
2022-11-12T17:40:48.399Z,7.00
2022-11-12T17:43:34.158Z,8.00
2022-11-12T17:46:19.393Z,6.30
2022-11-12T17:49:05.175Z,9.70
2022-11-12T17:51:50.575Z,8.70
2022-11-12T17:54:36.577Z,5.60
2022-11-12T17:57:22.198Z,5.90
2022-11-12T18:00:08.467Z,4.70
2022-11-12T18:02:56.586Z,7.30
2022-11-12T18:05:41.977Z,5.80
2022-11-12T18:08:27.418Z,5.40
2022-11-12T18:11:14.978Z,7.90
2022-11-12T18:14:07.171Z,6.00
2022-11-12T18:16:52.713Z,4.90
2022-11-12T18:19:38.123Z,6.10
2022-11-12T18:22:23.908Z,7.60
2022-11-12T18:25:09.502Z,7.40
2022-11-12T18:27:54.469Z,6.90
2022-11-12T18:30:39.883Z,6.50
2022-11-12T18:33:25.527Z,7.50
2022-11-12T18:36:16.969Z,6.60
2022-11-12T18:39:04.848Z,5.70
2022-11-12T18:41:51.222Z,5.40
2022-11-12T18:44:37.084Z,7.60
2022-11-12T18:47:22.829Z,6.40
2022-11-12T18:50:09.001Z,5.80
2022-11-12T18:52:54.613Z,6.20
2022-11-12T18:55:39.893Z,7.90
2022-11-12T18:58:30.542Z,6.30
2022-11-12T19:01:22.807Z,8.50
2022-11-12T19:04:11.486Z,7.70
2022-11-12T19:06:57.001Z,7.80
2022-11-12T19:09:42.339Z,6.90
2022-11-12T19:12:28.814Z,8.30
2022-11-12T19:15:14.216Z,8.30
2022-11-12T19:18:03.989Z,6.10
2022-11-12T19:20:49.428Z,7.80
2022-11-12T19:23:35.278Z,7.70
2022-11-12T19:26:22.307Z,7.80
2022-11-12T19:29:08.178Z,5.90
2022-11-12T19:31:53.363Z,5.90
2022-11-12T19:34:38.714Z,9.40
2022-11-12T19:37:33.553Z,4.70
2022-11-12T19:40:19.872Z,6.70
2022-11-12T19:43:05.418Z,5.80
2022-11-12T19:45:50.859Z,7.60
2022-11-12T19:48:37.763Z,6.20
2022-11-12T19:51:24.484Z,8.90
2022-11-12T19:54:10.075Z,5.60
2022-11-12T19:56:55.282Z,6.40
2022-11-12T19:59:40.612Z,8.00
2022-11-12T20:02:26.368Z,7.00
2022-11-12T20:05:11.301Z,8.70
2022-11-12T20:07:56.741Z,9.10
2022-11-12T20:10:42.217Z,8.80
2022-11-12T20:13:28.510Z,7.90
2022-11-12T20:16:23.869Z,8.70
2022-11-12T20:19:10.789Z,8.90
2022-11-12T20:21:56.246Z,7.50
2022-11-12T20:24:41.681Z,8.90
2022-11-12T20:27:27.234Z,8.40
2022-11-12T20:30:13.032Z,8.00
2022-11-12T20:32:58.099Z,7.20
2022-11-12T20:35:44.247Z,7.00
2022-11-12T20:38:30.333Z,8.80
2022-11-12T20:41:25.210Z,6.40
2022-11-12T20:44:10.536Z,9.00
2022-11-12T20:46:56.107Z,8.70
2022-11-12T20:49:41.644Z,6.10
2022-11-12T20:52:26.921Z,6.50
2022-11-12T20:55:12.174Z,5.40
2022-11-12T20:57:57.679Z,8.30
2022-11-12T21:00:43.297Z,5.80
2022-11-12T21:03:28.743Z,5.30
2022-11-12T21:06:24.600Z,6.80
2022-11-12T21:09:09.925Z,7.70
2022-11-12T21:11:55.500Z,5.30
2022-11-12T21:14:42.823Z,6.40
2022-11-12T21:17:31.629Z,7.50
2022-11-12T21:20:17.061Z,8.20
2022-11-12T21:23:02.503Z,8.70
2022-11-12T21:25:48.063Z,8.20
2022-11-12T21:28:36.880Z,8.20
2022-11-12T21:31:26.537Z,9.40
2022-11-12T21:34:11.815Z,9.30
2022-11-12T21:36:57.343Z,9.50
2022-11-12T21:39:42.655Z,4.70
2022-11-12T21:42:28.092Z,8.40
2022-11-12T21:45:13.276Z,7.40
2022-11-12T21:47:58.813Z,7.10
2022-11-12T21:50:44.341Z,8.90
2022-11-12T21:53:29.722Z,5.50
2022-11-12T21:56:19.060Z,7.20
2022-11-12T21:59:04.917Z,8.90
2022-11-12T22:01:50.210Z,9.00
2022-11-12T22:04:35.769Z,8.10
2022-11-12T22:07:21.251Z,7.50
2022-11-12T22:10:07.211Z,5.00
2022-11-12T22:13:19.852Z,6.90
2022-11-12T22:15:58.331Z,6.10
2022-11-12T22:18:46.338Z,6.70
2022-11-12T22:21:39.507Z,4.50
2022-11-12T22:24:25.029Z,6.80
2022-11-12T22:27:10.424Z,9.00
2022-11-12T22:29:55.884Z,4.80
2022-11-12T22:32:41.477Z,7.70
2022-11-12T22:35:26.790Z,7.80
2022-11-12T22:38:13.258Z,7.30
2022-11-12T22:41:03.055Z,8.70
2022-11-12T22:43:55.313Z,4.60
2022-11-12T22:46:40.682Z,8.30
2022-11-12T22:49:26.027Z,8.30
2022-11-12T22:52:11.565Z,9.70
2022-11-12T22:54:56.742Z,9.00
2022-11-12T22:57:42.010Z,9.80
2022-11-12T23:00:32.322Z,10.10
2022-11-12T23:03:17.464Z,10.80
2022-11-12T23:06:06.317Z,8.70
2022-11-12T23:08:53.961Z,8.40
2022-11-12T23:11:39.372Z,7.20
2022-11-12T23:14:24.732Z,9.50
2022-11-12T23:17:10.467Z,10.60
2022-11-12T23:19:55.769Z,10.60
2022-11-12T23:22:41.280Z,9.80
2022-11-12T23:25:26.581Z,9.90
2022-11-12T23:28:11.841Z,9.20
2022-11-12T23:30:58.393Z,10.40
2022-11-12T23:33:46.608Z,10.10
2022-11-12T23:36:32.309Z,4.80
2022-11-12T23:39:17.711Z,5.50
2022-11-12T23:42:03.479Z,8.10
2022-11-12T23:44:48.964Z,3.70
2022-11-12T23:47:34.342Z,4.20
2022-11-12T23:50:19.958Z,5.20
2022-11-12T23:53:05.322Z,7.30
2022-11-12T23:55:50.507Z,6.70
2022-11-12T23:58:38.147Z,4.50
